sensor_id;sensor_type;location;lat;lon;timestamp;P1;durP1;ratioP1;P2;durP2;ratioP2
22439;SDS011;11387;51.612;7.210;2022-09-19T00:01:49;15.57;;;2.50;;
22439;SDS011;11387;51.612;7.210;2022-09-19T00:04:20;24.85;;;3.90;;
22439;SDS011;11387;51.612;7.210;2022-09-19T00:06:51;23.92;;;3.08;;
22439;SDS011;11387;51.612;7.210;2022-09-19T00:09:21;15.13;;;2.60;;
22439;SDS011;11387;51.612;7.210;2022-09-19T00:11:51;18.17;;;2.58;;
22439;SDS011;11387;51.612;7.210;2022-09-19T00:14:20;19.73;;;2.50;;
22439;SDS011;11387;51.612;7.210;2022-09-19T00:16:53;22.75;;;5.10;;
22439;SDS011;11387;51.612;7.210;2022-09-19T00:19:23;20.00;;;3.55;;
22439;SDS011;11387;51.612;7.210;2022-09-19T00:21:53;22.67;;;3.55;;
22439;SDS011;11387;51.612;7.210;2022-09-19T00:24:22;29.30;;;3.85;;
22439;SDS011;11387;51.612;7.210;2022-09-19T00:27:08;21.38;;;3.95;;
22439;SDS011;11387;51.612;7.210;2022-09-19T00:29:37;26.27;;;3.17;;
22439;SDS011;11387;51.612;7.210;2022-09-19T00:32:08;29.50;;;2.83;;
22439;SDS011;11387;51.612;7.210;2022-09-19T00:34:40;19.98;;;3.42;;
22439;SDS011;11387;51.612;7.210;2022-09-19T00:37:09;30.98;;;4.60;;
22439;SDS011;11387;51.612;7.210;2022-09-19T00:39:38;19.52;;;4.05;;
22439;SDS011;11387;51.612;7.210;2022-09-19T00:44:53;23.05;;;3.47;;
22439;SDS011;11387;51.612;7.210;2022-09-19T00:47:24;17.17;;;3.00;;
22439;SDS011;11387;51.612;7.210;2022-09-19T00:50:03;21.80;;;3.38;;
22439;SDS011;11387;51.612;7.210;2022-09-19T00:52:36;22.02;;;3.45;;
22439;SDS011;11387;51.612;7.210;2022-09-19T00:55:08;23.55;;;4.22;;
22439;SDS011;11387;51.612;7.210;2022-09-19T00:57:42;19.08;;;2.97;;
22439;SDS011;11387;51.612;7.210;2022-09-19T01:00:18;30.80;;;4.53;;
22439;SDS011;11387;51.612;7.210;2022-09-19T01:05:16;27.75;;;3.17;;
22439;SDS011;11387;51.612;7.210;2022-09-19T01:07:52;18.30;;;3.33;;
22439;SDS011;11387;51.612;7.210;2022-09-19T01:10:40;25.17;;;3.53;;
22439;SDS011;11387;51.612;7.210;2022-09-19T01:13:24;25.75;;;3.72;;
22439;SDS011;11387;51.612;7.210;2022-09-19T01:16:03;27.58;;;3.42;;
22439;SDS011;11387;51.612;7.210;2022-09-19T01:18:34;20.40;;;3.78;;
22439;SDS011;11387;51.612;7.210;2022-09-19T01:21:15;20.92;;;3.25;;
22439;SDS011;11387;51.612;7.210;2022-09-19T01:24:26;29.90;;;4.30;;
22439;SDS011;11387;51.612;7.210;2022-09-19T01:30:12;26.42;;;3.83;;
22439;SDS011;11387;51.612;7.210;2022-09-19T01:32:43;25.85;;;4.28;;
22439;SDS011;11387;51.612;7.210;2022-09-19T01:35:16;35.28;;;3.88;;
22439;SDS011;11387;51.612;7.210;2022-09-19T01:37:51;23.80;;;3.38;;
22439;SDS011;11387;51.612;7.210;2022-09-19T01:40:27;32.17;;;4.07;;
22439;SDS011;11387;51.612;7.210;2022-09-19T01:42:56;25.60;;;3.28;;
22439;SDS011;11387;51.612;7.210;2022-09-19T01:45:26;29.50;;;3.40;;
22439;SDS011;11387;51.612;7.210;2022-09-19T01:48:03;35.97;;;3.95;;
22439;SDS011;11387;51.612;7.210;2022-09-19T01:50:41;34.35;;;3.78;;
22439;SDS011;11387;51.612;7.210;2022-09-19T01:53:20;27.02;;;4.25;;
22439;SDS011;11387;51.612;7.210;2022-09-19T01:55:58;20.13;;;3.13;;
22439;SDS011;11387;51.612;7.210;2022-09-19T01:58:34;24.77;;;4.13;;
22439;SDS011;11387;51.612;7.210;2022-09-19T02:01:15;22.02;;;3.60;;
22439;SDS011;11387;51.612;7.210;2022-09-19T02:03:51;31.88;;;3.90;;
22439;SDS011;11387;51.612;7.210;2022-09-19T02:06:24;26.23;;;3.83;;
22439;SDS011;11387;51.612;7.210;2022-09-19T02:09:06;33.15;;;3.72;;
22439;SDS011;11387;51.612;7.210;2022-09-19T02:11:38;22.90;;;3.90;;
22439;SDS011;11387;51.612;7.210;2022-09-19T02:14:09;32.55;;;3.65;;
22439;SDS011;11387;51.612;7.210;2022-09-19T02:16:46;34.78;;;3.58;;
22439;SDS011;11387;51.612;7.210;2022-09-19T02:19:20;25.40;;;3.40;;
22439;SDS011;11387;51.612;7.210;2022-09-19T02:21:59;27.15;;;4.65;;
22439;SDS011;11387;51.612;7.210;2022-09-19T02:24:32;23.67;;;3.75;;
22439;SDS011;11387;51.612;7.210;2022-09-19T02:27:04;24.90;;;3.58;;
22439;SDS011;11387;51.612;7.210;2022-09-19T02:29:35;21.55;;;4.05;;
22439;SDS011;11387;51.612;7.210;2022-09-19T02:32:09;26.48;;;3.78;;
22439;SDS011;11387;51.612;7.210;2022-09-19T02:34:37;23.08;;;3.30;;
22439;SDS011;11387;51.612;7.210;2022-09-19T02:37:07;31.20;;;4.10;;
22439;SDS011;11387;51.612;7.210;2022-09-19T02:39:47;28.52;;;4.95;;
22439;SDS011;11387;51.612;7.210;2022-09-19T02:42:22;24.55;;;4.07;;
22439;SDS011;11387;51.612;7.210;2022-09-19T02:45:03;34.30;;;4.85;;
22439;SDS011;11387;51.612;7.210;2022-09-19T02:47:37;38.63;;;4.65;;
22439;SDS011;11387;51.612;7.210;2022-09-19T02:52:43;34.90;;;5.32;;
22439;SDS011;11387;51.612;7.210;2022-09-19T02:55:16;33.08;;;5.38;;
22439;SDS011;11387;51.612;7.210;2022-09-19T02:57:50;25.45;;;4.07;;
22439;SDS011;11387;51.612;7.210;2022-09-19T03:00:21;34.17;;;4.28;;
22439;SDS011;11387;51.612;7.210;2022-09-19T03:05:23;35.55;;;4.15;;
22439;SDS011;11387;51.612;7.210;2022-09-19T03:07:55;22.95;;;3.42;;
22439;SDS011;11387;51.612;7.210;2022-09-19T03:10:28;37.72;;;3.88;;
22439;SDS011;11387;51.612;7.210;2022-09-19T03:13:00;34.95;;;3.65;;
22439;SDS011;11387;51.612;7.210;2022-09-19T03:15:31;28.15;;;4.40;;
22439;SDS011;11387;51.612;7.210;2022-09-19T03:18:05;29.65;;;3.78;;
22439;SDS011;11387;51.612;7.210;2022-09-19T03:20:37;37.47;;;5.30;;
22439;SDS011;11387;51.612;7.210;2022-09-19T03:23:06;23.45;;;3.58;;
22439;SDS011;11387;51.612;7.210;2022-09-19T03:25:35;29.77;;;4.05;;
22439;SDS011;11387;51.612;7.210;2022-09-19T03:28:03;22.42;;;3.90;;
22439;SDS011;11387;51.612;7.210;2022-09-19T03:30:32;30.70;;;3.72;;
22439;SDS011;11387;51.612;7.210;2022-09-19T03:35:29;30.52;;;3.92;;
22439;SDS011;11387;51.612;7.210;2022-09-19T03:37:57;28.73;;;4.43;;
22439;SDS011;11387;51.612;7.210;2022-09-19T03:40:27;32.88;;;4.13;;
22439;SDS011;11387;51.612;7.210;2022-09-19T03:42:57;30.55;;;4.32;;
22439;SDS011;11387;51.612;7.210;2022-09-19T03:45:25;21.73;;;3.95;;
22439;SDS011;11387;51.612;7.210;2022-09-19T03:50:21;25.98;;;3.78;;
22439;SDS011;11387;51.612;7.210;2022-09-19T03:52:51;24.60;;;3.40;;
22439;SDS011;11387;51.612;7.210;2022-09-19T03:55:19;29.48;;;3.60;;
22439;SDS011;11387;51.612;7.210;2022-09-19T03:57:47;28.27;;;3.47;;
22439;SDS011;11387;51.612;7.210;2022-09-19T04:00:15;22.40;;;3.95;;
22439;SDS011;11387;51.612;7.210;2022-09-19T04:02:43;24.75;;;3.55;;
22439;SDS011;11387;51.612;7.210;2022-09-19T04:07:39;23.67;;;3.40;;
22439;SDS011;11387;51.612;7.210;2022-09-19T04:10:10;33.20;;;3.50;;
22439;SDS011;11387;51.612;7.210;2022-09-19T04:12:39;24.48;;;3.08;;
22439;SDS011;11387;51.612;7.210;2022-09-19T04:15:07;18.58;;;3.38;;
22439;SDS011;11387;51.612;7.210;2022-09-19T04:17:36;30.20;;;3.30;;
22439;SDS011;11387;51.612;7.210;2022-09-19T04:20:08;21.35;;;3.75;;
22439;SDS011;11387;51.612;7.210;2022-09-19T04:22:37;26.65;;;4.00;;
22439;SDS011;11387;51.612;7.210;2022-09-19T04:25:05;24.83;;;3.92;;
22439;SDS011;11387;51.612;7.210;2022-09-19T04:27:37;31.38;;;4.15;;
22439;SDS011;11387;51.612;7.210;2022-09-19T04:30:05;18.35;;;3.78;;
22439;SDS011;11387;51.612;7.210;2022-09-19T04:32:34;18.38;;;3.58;;
22439;SDS011;11387;51.612;7.210;2022-09-19T04:37:30;21.42;;;3.92;;
22439;SDS011;11387;51.612;7.210;2022-09-19T04:39:58;28.92;;;3.28;;
22439;SDS011;11387;51.612;7.210;2022-09-19T04:42:26;21.75;;;3.47;;
22439;SDS011;11387;51.612;7.210;2022-09-19T04:44:56;27.67;;;3.78;;
22439;SDS011;11387;51.612;7.210;2022-09-19T04:47:24;24.65;;;3.17;;
22439;SDS011;11387;51.612;7.210;2022-09-19T04:49:52;24.88;;;3.28;;
22439;SDS011;11387;51.612;7.210;2022-09-19T04:52:25;22.92;;;2.97;;
22439;SDS011;11387;51.612;7.210;2022-09-19T04:57:21;28.30;;;3.45;;
22439;SDS011;11387;51.612;7.210;2022-09-19T04:59:55;24.00;;;3.20;;
22439;SDS011;11387;51.612;7.210;2022-09-19T05:02:23;31.88;;;3.75;;
22439;SDS011;11387;51.612;7.210;2022-09-19T05:04:56;27.90;;;4.10;;
22439;SDS011;11387;51.612;7.210;2022-09-19T05:07:24;22.13;;;3.50;;
22439;SDS011;11387;51.612;7.210;2022-09-19T05:09:54;25.08;;;3.35;;
22439;SDS011;11387;51.612;7.210;2022-09-19T05:14:50;26.33;;;3.28;;
22439;SDS011;11387;51.612;7.210;2022-09-19T05:17:20;22.98;;;4.93;;
22439;SDS011;11387;51.612;7.210;2022-09-19T05:19:49;34.85;;;4.20;;
22439;SDS011;11387;51.612;7.210;2022-09-19T05:22:17;23.50;;;3.92;;
22439;SDS011;11387;51.612;7.210;2022-09-19T05:24:46;21.65;;;4.47;;
22439;SDS011;11387;51.612;7.210;2022-09-19T05:27:14;27.58;;;3.45;;
22439;SDS011;11387;51.612;7.210;2022-09-19T05:29:43;30.50;;;3.65;;
22439;SDS011;11387;51.612;7.210;2022-09-19T05:32:11;21.38;;;3.95;;
22439;SDS011;11387;51.612;7.210;2022-09-19T05:34:41;29.38;;;3.08;;
22439;SDS011;11387;51.612;7.210;2022-09-19T05:37:09;32.17;;;4.38;;
22439;SDS011;11387;51.612;7.210;2022-09-19T05:39:39;22.27;;;3.03;;
22439;SDS011;11387;51.612;7.210;2022-09-19T05:42:10;29.58;;;4.63;;
22439;SDS011;11387;51.612;7.210;2022-09-19T05:44:38;29.85;;;3.42;;
22439;SDS011;11387;51.612;7.210;2022-09-19T05:47:06;30.23;;;5.15;;
22439;SDS011;11387;51.612;7.210;2022-09-19T05:49:34;26.30;;;3.72;;
22439;SDS011;11387;51.612;7.210;2022-09-19T05:52:04;26.75;;;3.28;;
22439;SDS011;11387;51.612;7.210;2022-09-19T05:54:46;25.15;;;4.03;;
22439;SDS011;11387;51.612;7.210;2022-09-19T05:57:14;27.60;;;3.95;;
22439;SDS011;11387;51.612;7.210;2022-09-19T06:02:09;20.35;;;3.78;;
22439;SDS011;11387;51.612;7.210;2022-09-19T06:04:38;14.30;;;3.38;;
22439;SDS011;11387;51.612;7.210;2022-09-19T06:07:09;26.20;;;4.05;;
22439;SDS011;11387;51.612;7.210;2022-09-19T06:09:38;22.00;;;4.05;;
22439;SDS011;11387;51.612;7.210;2022-09-19T06:12:07;23.60;;;4.75;;
22439;SDS011;11387;51.612;7.210;2022-09-19T06:14:35;25.30;;;3.70;;
22439;SDS011;11387;51.612;7.210;2022-09-19T06:17:05;20.83;;;2.80;;
22439;SDS011;11387;51.612;7.210;2022-09-19T06:19:34;23.13;;;4.38;;
22439;SDS011;11387;51.612;7.210;2022-09-19T06:22:02;21.77;;;3.58;;
22439;SDS011;11387;51.612;7.210;2022-09-19T06:24:33;21.10;;;3.47;;
22439;SDS011;11387;51.612;7.210;2022-09-19T06:27:02;15.73;;;3.22;;
22439;SDS011;11387;51.612;7.210;2022-09-19T06:29:30;21.00;;;3.72;;
22439;SDS011;11387;51.612;7.210;2022-09-19T06:32:02;27.85;;;3.83;;
22439;SDS011;11387;51.612;7.210;2022-09-19T06:34:30;18.27;;;3.28;;
22439;SDS011;11387;51.612;7.210;2022-09-19T06:37:19;14.15;;;3.05;;
22439;SDS011;11387;51.612;7.210;2022-09-19T06:39:48;21.38;;;3.70;;
22439;SDS011;11387;51.612;7.210;2022-09-19T06:42:17;17.00;;;3.20;;
22439;SDS011;11387;51.612;7.210;2022-09-19T06:44:55;22.92;;;3.10;;
22439;SDS011;11387;51.612;7.210;2022-09-19T06:47:23;14.73;;;2.90;;
22439;SDS011;11387;51.612;7.210;2022-09-19T06:52:19;19.30;;;2.67;;
22439;SDS011;11387;51.612;7.210;2022-09-19T06:54:49;26.90;;;4.90;;
22439;SDS011;11387;51.612;7.210;2022-09-19T06:57:17;19.10;;;2.45;;
22439;SDS011;11387;51.612;7.210;2022-09-19T06:59:45;17.50;;;3.22;;
22439;SDS011;11387;51.612;7.210;2022-09-19T07:04:41;23.73;;;3.03;;
22439;SDS011;11387;51.612;7.210;2022-09-19T07:07:09;12.02;;;2.30;;
22439;SDS011;11387;51.612;7.210;2022-09-19T07:09:37;15.77;;;2.75;;
22439;SDS011;11387;51.612;7.210;2022-09-19T07:14:35;14.13;;;2.33;;
22439;SDS011;11387;51.612;7.210;2022-09-19T07:17:04;16.95;;;2.55;;
22439;SDS011;11387;51.612;7.210;2022-09-19T07:19:32;9.30;;;2.40;;
22439;SDS011;11387;51.612;7.210;2022-09-19T07:22:01;17.40;;;2.70;;
22439;SDS011;11387;51.612;7.210;2022-09-19T07:24:32;14.38;;;2.80;;
22439;SDS011;11387;51.612;7.210;2022-09-19T07:26:59;14.52;;;1.90;;
22439;SDS011;11387;51.612;7.210;2022-09-19T07:29:29;15.38;;;2.40;;
22439;SDS011;11387;51.612;7.210;2022-09-19T07:31:57;16.35;;;2.15;;
22439;SDS011;11387;51.612;7.210;2022-09-19T07:34:25;10.63;;;2.50;;
22439;SDS011;11387;51.612;7.210;2022-09-19T07:36:53;11.30;;;3.17;;
22439;SDS011;11387;51.612;7.210;2022-09-19T07:39:21;12.60;;;2.42;;
22439;SDS011;11387;51.612;7.210;2022-09-19T07:41:50;10.20;;;2.22;;
22439;SDS011;11387;51.612;7.210;2022-09-19T07:44:18;7.50;;;2.47;;
22439;SDS011;11387;51.612;7.210;2022-09-19T07:46:49;10.57;;;3.05;;
22439;SDS011;11387;51.612;7.210;2022-09-19T07:49:31;14.73;;;2.80;;
22439;SDS011;11387;51.612;7.210;2022-09-19T07:51:59;15.77;;;2.83;;
22439;SDS011;11387;51.612;7.210;2022-09-19T07:54:28;9.07;;;2.75;;
22439;SDS011;11387;51.612;7.210;2022-09-19T07:56:55;8.13;;;2.55;;
22439;SDS011;11387;51.612;7.210;2022-09-19T07:59:24;10.38;;;2.97;;
22439;SDS011;11387;51.612;7.210;2022-09-19T08:01:53;7.40;;;2.25;;
22439;SDS011;11387;51.612;7.210;2022-09-19T08:04:21;6.10;;;2.45;;
22439;SDS011;11387;51.612;7.210;2022-09-19T08:06:49;6.15;;;2.35;;
22439;SDS011;11387;51.612;7.210;2022-09-19T08:09:17;6.53;;;2.78;;
22439;SDS011;11387;51.612;7.210;2022-09-19T08:11:45;9.43;;;2.78;;
22439;SDS011;11387;51.612;7.210;2022-09-19T08:14:13;16.67;;;3.15;;
22439;SDS011;11387;51.612;7.210;2022-09-19T08:16:41;10.40;;;3.30;;
22439;SDS011;11387;51.612;7.210;2022-09-19T08:19:11;10.38;;;3.03;;
22439;SDS011;11387;51.612;7.210;2022-09-19T08:21:39;8.15;;;3.00;;
22439;SDS011;11387;51.612;7.210;2022-09-19T08:24:07;6.07;;;2.30;;
22439;SDS011;11387;51.612;7.210;2022-09-19T08:26:38;8.48;;;2.92;;
22439;SDS011;11387;51.612;7.210;2022-09-19T08:29:06;11.65;;;2.88;;
22439;SDS011;11387;51.612;7.210;2022-09-19T08:31:33;10.38;;;2.80;;
22439;SDS011;11387;51.612;7.210;2022-09-19T08:34:03;8.82;;;2.03;;
22439;SDS011;11387;51.612;7.210;2022-09-19T08:36:33;9.90;;;2.30;;
22439;SDS011;11387;51.612;7.210;2022-09-19T08:39:02;7.47;;;2.38;;
22439;SDS011;11387;51.612;7.210;2022-09-19T08:41:34;12.93;;;2.22;;
22439;SDS011;11387;51.612;7.210;2022-09-19T08:44:12;11.00;;;2.13;;
22439;SDS011;11387;51.612;7.210;2022-09-19T08:46:50;8.65;;;2.30;;
22439;SDS011;11387;51.612;7.210;2022-09-19T08:49:25;8.23;;;2.90;;
22439;SDS011;11387;51.612;7.210;2022-09-19T08:52:00;8.68;;;2.72;;
22439;SDS011;11387;51.612;7.210;2022-09-19T08:54:33;9.05;;;2.20;;
22439;SDS011;11387;51.612;7.210;2022-09-19T08:57:04;8.60;;;2.45;;
22439;SDS011;11387;51.612;7.210;2022-09-19T08:59:41;8.60;;;2.42;;
22439;SDS011;11387;51.612;7.210;2022-09-19T09:02:17;13.73;;;2.70;;
22439;SDS011;11387;51.612;7.210;2022-09-19T09:05:14;8.73;;;2.13;;
22439;SDS011;11387;51.612;7.210;2022-09-19T09:07:48;8.68;;;2.55;;
22439;SDS011;11387;51.612;7.210;2022-09-19T09:10:25;12.50;;;2.78;;
22439;SDS011;11387;51.612;7.210;2022-09-19T09:13:05;6.65;;;2.35;;
22439;SDS011;11387;51.612;7.210;2022-09-19T09:15:46;9.27;;;2.17;;
22439;SDS011;11387;51.612;7.210;2022-09-19T09:18:31;7.00;;;2.60;;
22439;SDS011;11387;51.612;7.210;2022-09-19T09:21:20;14.07;;;2.50;;
22439;SDS011;11387;51.612;7.210;2022-09-19T09:23:59;6.47;;;2.28;;
22439;SDS011;11387;51.612;7.210;2022-09-19T09:26:54;12.02;;;2.35;;
22439;SDS011;11387;51.612;7.210;2022-09-19T09:29:28;9.65;;;2.10;;
22439;SDS011;11387;51.612;7.210;2022-09-19T09:32:03;11.70;;;2.45;;
22439;SDS011;11387;51.612;7.210;2022-09-19T09:34:45;13.93;;;2.33;;
22439;SDS011;11387;51.612;7.210;2022-09-19T09:37:18;12.85;;;2.20;;
22439;SDS011;11387;51.612;7.210;2022-09-19T09:39:54;11.48;;;2.28;;
22439;SDS011;11387;51.612;7.210;2022-09-19T09:42:37;9.18;;;2.45;;
22439;SDS011;11387;51.612;7.210;2022-09-19T09:45:14;7.63;;;1.85;;
22439;SDS011;11387;51.612;7.210;2022-09-19T09:47:50;5.88;;;1.85;;
22439;SDS011;11387;51.612;7.210;2022-09-19T09:50:35;9.05;;;2.00;;
22439;SDS011;11387;51.612;7.210;2022-09-19T09:53:17;11.35;;;2.53;;
22439;SDS011;11387;51.612;7.210;2022-09-19T09:55:58;7.05;;;2.03;;
22439;SDS011;11387;51.612;7.210;2022-09-19T09:58:56;9.02;;;1.90;;
22439;SDS011;11387;51.612;7.210;2022-09-19T10:01:39;8.98;;;2.40;;
22439;SDS011;11387;51.612;7.210;2022-09-19T10:04:32;5.57;;;2.00;;
22439;SDS011;11387;51.612;7.210;2022-09-19T10:07:09;7.95;;;2.10;;
22439;SDS011;11387;51.612;7.210;2022-09-19T10:09:47;8.07;;;2.00;;
22439;SDS011;11387;51.612;7.210;2022-09-19T10:12:22;13.55;;;2.17;;
22439;SDS011;11387;51.612;7.210;2022-09-19T10:15:14;8.65;;;1.67;;
22439;SDS011;11387;51.612;7.210;2022-09-19T10:17:47;9.70;;;2.03;;
22439;SDS011;11387;51.612;7.210;2022-09-19T10:20:21;9.10;;;1.98;;
22439;SDS011;11387;51.612;7.210;2022-09-19T10:22:59;9.82;;;2.17;;
22439;SDS011;11387;51.612;7.210;2022-09-19T10:25:27;13.85;;;3.42;;
22439;SDS011;11387;51.612;7.210;2022-09-19T10:28:00;9.50;;;2.10;;
22439;SDS011;11387;51.612;7.210;2022-09-19T10:30:49;9.15;;;2.78;;
22439;SDS011;11387;51.612;7.210;2022-09-19T10:33:24;8.02;;;2.50;;
22439;SDS011;11387;51.612;7.210;2022-09-19T10:35:54;10.48;;;2.15;;
22439;SDS011;11387;51.612;7.210;2022-09-19T10:38:25;11.75;;;2.58;;
22439;SDS011;11387;51.612;7.210;2022-09-19T10:40:54;8.18;;;2.53;;
22439;SDS011;11387;51.612;7.210;2022-09-19T10:43:26;6.43;;;2.22;;
22439;SDS011;11387;51.612;7.210;2022-09-19T10:45:57;5.53;;;1.85;;
22439;SDS011;11387;51.612;7.210;2022-09-19T10:48:34;9.43;;;1.83;;
22439;SDS011;11387;51.612;7.210;2022-09-19T10:51:04;7.57;;;1.92;;
22439;SDS011;11387;51.612;7.210;2022-09-19T10:53:35;11.73;;;2.42;;
22439;SDS011;11387;51.612;7.210;2022-09-19T10:56:06;9.95;;;2.22;;
22439;SDS011;11387;51.612;7.210;2022-09-19T10:58:43;9.38;;;2.20;;
22439;SDS011;11387;51.612;7.210;2022-09-19T11:01:18;9.90;;;2.90;;
22439;SDS011;11387;51.612;7.210;2022-09-19T11:03:57;6.70;;;2.25;;
22439;SDS011;11387;51.612;7.210;2022-09-19T11:06:30;11.65;;;2.70;;
22439;SDS011;11387;51.612;7.210;2022-09-19T11:08:59;11.05;;;2.00;;
22439;SDS011;11387;51.612;7.210;2022-09-19T11:11:30;8.93;;;2.35;;
22439;SDS011;11387;51.612;7.210;2022-09-19T11:14:11;9.27;;;2.50;;
22439;SDS011;11387;51.612;7.210;2022-09-19T11:16:51;11.55;;;2.58;;
22439;SDS011;11387;51.612;7.210;2022-09-19T11:19:40;8.82;;;2.50;;
22439;SDS011;11387;51.612;7.210;2022-09-19T11:22:27;7.30;;;2.08;;
22439;SDS011;11387;51.612;7.210;2022-09-19T11:25:14;9.63;;;2.00;;
22439;SDS011;11387;51.612;7.210;2022-09-19T11:27:56;7.32;;;2.38;;
22439;SDS011;11387;51.612;7.210;2022-09-19T11:30:37;8.52;;;1.88;;
22439;SDS011;11387;51.612;7.210;2022-09-19T11:33:21;5.82;;;1.92;;
22439;SDS011;11387;51.612;7.210;2022-09-19T11:36:29;9.27;;;2.00;;
22439;SDS011;11387;51.612;7.210;2022-09-19T11:39:05;9.48;;;1.80;;
22439;SDS011;11387;51.612;7.210;2022-09-19T11:42:02;9.27;;;2.75;;
22439;SDS011;11387;51.612;7.210;2022-09-19T11:44:41;5.78;;;1.52;;
22439;SDS011;11387;51.612;7.210;2022-09-19T11:47:33;8.70;;;2.17;;
22439;SDS011;11387;51.612;7.210;2022-09-19T11:50:19;9.18;;;2.08;;
22439;SDS011;11387;51.612;7.210;2022-09-19T11:53:02;4.78;;;1.65;;
22439;SDS011;11387;51.612;7.210;2022-09-19T11:55:42;5.38;;;1.65;;
22439;SDS011;11387;51.612;7.210;2022-09-19T11:58:16;5.70;;;1.80;;
22439;SDS011;11387;51.612;7.210;2022-09-19T12:00:56;5.60;;;1.63;;
22439;SDS011;11387;51.612;7.210;2022-09-19T12:03:37;6.03;;;1.80;;
22439;SDS011;11387;51.612;7.210;2022-09-19T12:06:23;11.43;;;1.73;;
22439;SDS011;11387;51.612;7.210;2022-09-19T12:09:07;11.77;;;1.90;;
22439;SDS011;11387;51.612;7.210;2022-09-19T12:11:42;5.43;;;1.73;;
22439;SDS011;11387;51.612;7.210;2022-09-19T12:14:18;5.05;;;1.42;;
22439;SDS011;11387;51.612;7.210;2022-09-19T12:16:51;8.25;;;1.92;;
22439;SDS011;11387;51.612;7.210;2022-09-19T12:19:25;5.45;;;1.55;;
22439;SDS011;11387;51.612;7.210;2022-09-19T12:22:01;5.10;;;1.45;;
22439;SDS011;11387;51.612;7.210;2022-09-19T12:24:36;8.85;;;2.50;;
22439;SDS011;11387;51.612;7.210;2022-09-19T12:27:21;9.38;;;2.30;;
22439;SDS011;11387;51.612;7.210;2022-09-19T12:29:58;8.43;;;2.13;;
22439;SDS011;11387;51.612;7.210;2022-09-19T12:32:33;8.23;;;2.67;;
22439;SDS011;11387;51.612;7.210;2022-09-19T12:35:12;5.85;;;2.00;;
22439;SDS011;11387;51.612;7.210;2022-09-19T12:37:51;7.97;;;1.60;;
22439;SDS011;11387;51.612;7.210;2022-09-19T12:40:35;4.30;;;1.50;;
22439;SDS011;11387;51.612;7.210;2022-09-19T12:43:11;7.60;;;1.80;;
22439;SDS011;11387;51.612;7.210;2022-09-19T12:45:46;8.38;;;2.10;;
22439;SDS011;11387;51.612;7.210;2022-09-19T12:48:21;5.20;;;1.27;;
22439;SDS011;11387;51.612;7.210;2022-09-19T12:50:57;4.93;;;1.73;;
22439;SDS011;11387;51.612;7.210;2022-09-19T12:53:35;7.25;;;1.92;;
22439;SDS011;11387;51.612;7.210;2022-09-19T12:56:08;5.15;;;1.33;;
22439;SDS011;11387;51.612;7.210;2022-09-19T12:58:46;3.78;;;1.35;;
22439;SDS011;11387;51.612;7.210;2022-09-19T13:01:21;4.20;;;1.08;;
22439;SDS011;11387;51.612;7.210;2022-09-19T13:03:54;10.20;;;1.33;;
22439;SDS011;11387;51.612;7.210;2022-09-19T13:06:28;2.97;;;0.90;;
22439;SDS011;11387;51.612;7.210;2022-09-19T13:09:04;3.85;;;1.17;;
22439;SDS011;11387;51.612;7.210;2022-09-19T13:11:39;7.25;;;1.30;;
22439;SDS011;11387;51.612;7.210;2022-09-19T13:14:10;7.53;;;1.40;;
22439;SDS011;11387;51.612;7.210;2022-09-19T13:16:43;4.82;;;1.40;;
22439;SDS011;11387;51.612;7.210;2022-09-19T13:19:27;3.25;;;1.02;;
22439;SDS011;11387;51.612;7.210;2022-09-19T13:22:21;6.32;;;1.52;;
22439;SDS011;11387;51.612;7.210;2022-09-19T13:25:11;6.32;;;1.23;;
22439;SDS011;11387;51.612;7.210;2022-09-19T13:27:42;8.10;;;1.80;;
22439;SDS011;11387;51.612;7.210;2022-09-19T13:33:19;6.05;;;0.85;;
22439;SDS011;11387;51.612;7.210;2022-09-19T13:35:50;6.43;;;1.15;;
22439;SDS011;11387;51.612;7.210;2022-09-19T13:38:21;4.20;;;1.00;;
22439;SDS011;11387;51.612;7.210;2022-09-19T13:40:56;7.65;;;0.90;;
22439;SDS011;11387;51.612;7.210;2022-09-19T13:43:37;5.57;;;0.60;;
22439;SDS011;11387;51.612;7.210;2022-09-19T13:46:17;6.63;;;1.42;;
22439;SDS011;11387;51.612;7.210;2022-09-19T13:48:51;10.07;;;1.38;;
22439;SDS011;11387;51.612;7.210;2022-09-19T13:51:28;5.28;;;1.67;;
22439;SDS011;11387;51.612;7.210;2022-09-19T13:54:15;7.00;;;1.67;;
22439;SDS011;11387;51.612;7.210;2022-09-19T13:57:10;5.60;;;1.90;;
22439;SDS011;11387;51.612;7.210;2022-09-19T13:59:47;5.38;;;1.98;;
22439;SDS011;11387;51.612;7.210;2022-09-19T14:02:19;7.00;;;3.10;;
22439;SDS011;11387;51.612;7.210;2022-09-19T14:04:52;10.00;;;2.65;;
22439;SDS011;11387;51.612;7.210;2022-09-19T14:07:35;7.50;;;2.00;;
22439;SDS011;11387;51.612;7.210;2022-09-19T14:10:32;4.47;;;1.45;;
22439;SDS011;11387;51.612;7.210;2022-09-19T14:18:57;6.78;;;1.40;;
22439;SDS011;11387;51.612;7.210;2022-09-19T14:30:38;9.07;;;3.00;;
22439;SDS011;11387;51.612;7.210;2022-09-19T14:36:45;8.82;;;1.92;;
22439;SDS011;11387;51.612;7.210;2022-09-19T14:39:36;8.13;;;2.13;;
22439;SDS011;11387;51.612;7.210;2022-09-19T14:42:20;7.32;;;2.22;;
22439;SDS011;11387;51.612;7.210;2022-09-19T14:45:20;8.23;;;2.15;;
22439;SDS011;11387;51.612;7.210;2022-09-19T14:47:58;14.48;;;4.32;;
22439;SDS011;11387;51.612;7.210;2022-09-19T14:50:32;11.40;;;4.18;;
22439;SDS011;11387;51.612;7.210;2022-09-19T14:53:05;13.15;;;5.50;;
22439;SDS011;11387;51.612;7.210;2022-09-19T14:55:41;9.43;;;2.95;;
22439;SDS011;11387;51.612;7.210;2022-09-19T14:58:22;7.20;;;1.80;;
22439;SDS011;11387;51.612;7.210;2022-09-19T15:00:52;19.83;;;5.88;;
22439;SDS011;11387;51.612;7.210;2022-09-19T15:03:24;11.52;;;4.07;;
22439;SDS011;11387;51.612;7.210;2022-09-19T15:05:52;15.52;;;3.35;;
22439;SDS011;11387;51.612;7.210;2022-09-19T15:08:24;7.28;;;1.52;;
22439;SDS011;11387;51.612;7.210;2022-09-19T15:10:57;5.55;;;1.45;;
22439;SDS011;11387;51.612;7.210;2022-09-19T15:13:27;19.05;;;7.95;;
22439;SDS011;11387;51.612;7.210;2022-09-19T15:15:59;22.88;;;14.35;;
22439;SDS011;11387;51.612;7.210;2022-09-19T15:18:34;13.80;;;3.20;;
22439;SDS011;11387;51.612;7.210;2022-09-19T15:21:06;8.90;;;4.10;;
22439;SDS011;11387;51.612;7.210;2022-09-19T15:23:36;9.98;;;3.00;;
22439;SDS011;11387;51.612;7.210;2022-09-19T15:26:08;18.08;;;2.35;;
22439;SDS011;11387;51.612;7.210;2022-09-19T15:28:41;6.03;;;1.42;;
22439;SDS011;11387;51.612;7.210;2022-09-19T15:31:22;5.32;;;1.95;;
22439;SDS011;11387;51.612;7.210;2022-09-19T15:33:56;7.00;;;1.60;;
22439;SDS011;11387;51.612;7.210;2022-09-19T15:36:30;11.15;;;2.55;;
22439;SDS011;11387;51.612;7.210;2022-09-19T15:39:02;10.98;;;1.98;;
22439;SDS011;11387;51.612;7.210;2022-09-19T15:41:32;5.55;;;1.45;;
22439;SDS011;11387;51.612;7.210;2022-09-19T15:44:01;10.20;;;2.35;;
22439;SDS011;11387;51.612;7.210;2022-09-19T15:46:41;9.95;;;2.78;;
22439;SDS011;11387;51.612;7.210;2022-09-19T15:49:18;8.52;;;2.50;;
22439;SDS011;11387;51.612;7.210;2022-09-19T15:51:54;8.93;;;2.28;;
22439;SDS011;11387;51.612;7.210;2022-09-19T15:54:27;9.60;;;2.08;;
22439;SDS011;11387;51.612;7.210;2022-09-19T15:56:57;8.82;;;1.90;;
22439;SDS011;11387;51.612;7.210;2022-09-19T15:59:29;13.60;;;1.98;;
22439;SDS011;11387;51.612;7.210;2022-09-19T16:02:03;7.53;;;1.70;;
22439;SDS011;11387;51.612;7.210;2022-09-19T16:04:36;8.00;;;1.77;;
22439;SDS011;11387;51.612;7.210;2022-09-19T16:07:21;7.55;;;1.88;;
22439;SDS011;11387;51.612;7.210;2022-09-19T16:10:10;4.40;;;1.65;;
22439;SDS011;11387;51.612;7.210;2022-09-19T16:12:59;7.95;;;1.60;;
22439;SDS011;11387;51.612;7.210;2022-09-19T16:15:28;6.07;;;1.10;;
22439;SDS011;11387;51.612;7.210;2022-09-19T16:18:05;5.95;;;1.23;;
22439;SDS011;11387;51.612;7.210;2022-09-19T16:23:37;5.40;;;1.40;;
22439;SDS011;11387;51.612;7.210;2022-09-19T16:26:09;9.30;;;1.05;;